createdAt,value
2019-04-04T00:00:56.888Z,93971.73
2019-04-04T00:02:01.951Z,93975.09
2019-04-04T00:03:05.564Z,93974.80
2019-04-04T00:04:09.058Z,93968.84
2019-04-04T00:05:12.545Z,93967.72
2019-04-04T00:06:16.029Z,93966.82
2019-04-04T00:07:19.507Z,93962.60
2019-04-04T00:08:23.029Z,93960.80
2019-04-04T00:09:26.457Z,93962.34
2019-04-04T00:10:29.881Z,93960.80
2019-04-04T00:11:33.303Z,93955.72
2019-04-04T00:12:36.986Z,93958.45
2019-04-04T00:13:42.538Z,93964.43
2019-04-04T00:14:45.995Z,93959.12
2019-04-04T00:15:49.429Z,93955.55
2019-04-04T00:16:52.859Z,93945.20
2019-04-04T00:17:56.407Z,93942.43
2019-04-04T00:18:59.849Z,93936.48
2019-04-04T00:20:04.510Z,93937.77
2019-04-04T00:21:07.932Z,93952.39
2019-04-04T00:22:11.384Z,93949.17
2019-04-04T00:23:15.059Z,93938.25
2019-04-04T00:24:18.499Z,93935.02
2019-04-04T00:25:21.953Z,93933.56
2019-04-04T00:26:25.443Z,93931.73
2019-04-04T00:27:28.931Z,93924.06
2019-04-04T00:28:32.422Z,93921.89
2019-04-04T00:29:35.878Z,93914.38
2019-04-04T00:30:39.381Z,93914.19
2019-04-04T00:31:42.854Z,93907.41
2019-04-04T00:32:46.286Z,93909.72
2019-04-04T00:33:49.727Z,93905.98
2019-04-04T00:34:53.237Z,93908.05
2019-04-04T00:35:56.664Z,93898.81
2019-04-04T00:37:00.087Z,93896.50
2019-04-04T00:38:06.674Z,93891.26
2019-04-04T00:39:09.900Z,93894.21
2019-04-04T00:40:13.531Z,93901.20
2019-04-04T00:41:16.954Z,93901.20
2019-04-04T00:42:20.378Z,93892.56
2019-04-04T00:43:23.796Z,93890.21
2019-04-04T00:44:27.244Z,93890.21
2019-04-04T00:45:30.732Z,93890.47
2019-04-04T00:46:34.219Z,93887.26
2019-04-04T00:47:37.775Z,93880.91
2019-04-04T00:48:41.140Z,93880.91
2019-04-04T00:49:44.586Z,93880.50
2019-04-04T00:50:48.007Z,93888.72
2019-04-04T00:51:51.506Z,93881.36
2019-04-04T00:52:54.994Z,93874.98
2019-04-04T00:54:00.163Z,93873.03
2019-04-04T00:55:04.353Z,93868.78
2019-04-04T00:56:07.787Z,93861.22
2019-04-04T00:57:11.209Z,93854.16
2019-04-04T00:58:14.646Z,93854.89
2019-04-04T00:59:18.134Z,93853.06
2019-04-04T01:00:22.039Z,93856.48
2019-04-04T01:01:27.158Z,93858.03
2019-04-04T01:02:30.542Z,93858.03
2019-04-04T01:03:34.101Z,93855.41
2019-04-04T01:04:37.548Z,93855.08
2019-04-04T01:05:40.984Z,93852.91
2019-04-04T01:06:44.419Z,93854.74
2019-04-04T01:07:47.845Z,93852.61
2019-04-04T01:08:51.268Z,93854.74
2019-04-04T01:09:54.775Z,93854.74
2019-04-04T01:10:58.196Z,93850.02
2019-04-04T01:12:01.692Z,93845.73
2019-04-04T01:13:05.253Z,93847.67
2019-04-04T01:14:08.678Z,93849.65
2019-04-04T01:15:12.253Z,93847.03
2019-04-04T01:16:15.679Z,93843.56
2019-04-04T01:17:19.100Z,93843.63
2019-04-04T01:18:22.523Z,93841.95
2019-04-04T01:19:25.936Z,93838.74
2019-04-04T01:20:29.449Z,93842.74
2019-04-04T01:21:32.936Z,93845.99
2019-04-04T01:22:36.426Z,93845.99
2019-04-04T01:23:39.857Z,93841.44
2019-04-04T01:24:43.278Z,93845.70
2019-04-04T01:25:46.788Z,93839.45
2019-04-04T01:26:50.276Z,93832.31
2019-04-04T01:27:54.373Z,93841.80
2019-04-04T01:28:57.791Z,93831.61
2019-04-04T01:30:01.297Z,93834.85
2019-04-04T01:31:04.800Z,93834.35
2019-04-04T01:32:08.298Z,93833.69
2019-04-04T01:33:11.715Z,93833.28
2019-04-04T01:34:15.141Z,93835.08
2019-04-04T01:35:18.667Z,93839.22
2019-04-04T01:36:23.161Z,93833.38
2019-04-04T01:37:27.893Z,93835.37
2019-04-04T01:38:31.331Z,93836.20
2019-04-04T01:39:34.779Z,93827.19
2019-04-04T01:40:38.284Z,93824.94
2019-04-04T01:41:41.706Z,93820.35
2019-04-04T01:42:45.125Z,93819.53
2019-04-04T01:43:48.543Z,93821.28
2019-04-04T01:44:52.033Z,93815.16
2019-04-04T01:45:55.504Z,93811.64
2019-04-04T01:46:58.897Z,93812.02
2019-04-04T01:48:02.390Z,93815.83
2019-04-04T01:49:05.811Z,93818.63
2019-04-04T01:50:09.379Z,93812.39
2019-04-04T01:51:12.815Z,93812.39
2019-04-04T01:52:16.355Z,93819.56
2019-04-04T01:53:19.788Z,93813.06
2019-04-04T01:54:23.296Z,93813.06
2019-04-04T01:55:26.718Z,93810.22
2019-04-04T01:56:30.228Z,93810.22
2019-04-04T01:57:33.648Z,93814.33
2019-04-04T01:58:37.071Z,93814.33
2019-04-04T01:59:41.970Z,93819.90
2019-04-04T02:00:46.639Z,93816.02
2019-04-04T02:01:50.092Z,93812.39
2019-04-04T02:02:53.523Z,93809.14
2019-04-04T02:03:56.951Z,93804.02
2019-04-04T02:05:00.380Z,93807.61
2019-04-04T02:06:03.895Z,93800.39
2019-04-04T02:07:07.333Z,93802.59
2019-04-04T02:08:10.752Z,93798.19
2019-04-04T02:09:14.193Z,93797.89
2019-04-04T02:10:17.687Z,93794.86
2019-04-04T02:11:21.129Z,93794.91
2019-04-04T02:12:24.573Z,93793.81
2019-04-04T02:13:27.991Z,93796.64
2019-04-04T02:14:31.483Z,93799.53
2019-04-04T02:15:34.994Z,93801.77
2019-04-04T02:16:38.409Z,93799.20
2019-04-04T02:17:41.899Z,93792.55
2019-04-04T02:18:45.338Z,93787.95
2019-04-04T02:19:48.765Z,93787.47
2019-04-04T02:20:52.183Z,93783.98
2019-04-04T02:21:55.635Z,93784.52
2019-04-04T02:23:01.192Z,93783.39
2019-04-04T02:24:04.456Z,93780.06
2019-04-04T02:25:08.000Z,93781.11
2019-04-04T02:26:11.454Z,93766.80
2019-04-04T02:27:14.941Z,93766.80
2019-04-04T02:28:18.363Z,93773.78
2019-04-04T02:29:21.856Z,93769.45
2019-04-04T02:30:25.280Z,93762.20
2019-04-04T02:31:30.348Z,93761.48
2019-04-04T02:32:33.787Z,93763.91
2019-04-04T02:33:37.208Z,93762.42
2019-04-04T02:34:40.628Z,93756.56
2019-04-04T02:35:44.115Z,93756.56
2019-04-04T02:36:49.307Z,93757.42
2019-04-04T02:37:54.938Z,93762.42
2019-04-04T02:39:09.456Z,93752.89
2019-04-04T02:40:13.134Z,93749.47
2019-04-04T02:41:16.585Z,93749.47
2019-04-04T02:42:22.110Z,93744.41
2019-04-04T02:43:28.297Z,93744.41
2019-04-04T02:44:32.243Z,93737.43
2019-04-04T02:45:38.811Z,93734.89
2019-04-04T02:46:44.070Z,93735.10
2019-04-04T02:47:50.253Z,93735.33
2019-04-04T02:48:55.844Z,93735.52
2019-04-04T02:50:00.667Z,93730.98
2019-04-04T02:51:01.738Z,93736.47
2019-04-04T02:52:05.309Z,93732.55
2019-04-04T02:53:08.757Z,93721.84
2019-04-04T02:54:12.182Z,93728.72
2019-04-04T02:55:15.602Z,93729.13
2019-04-04T02:56:19.030Z,93729.13
2019-04-04T02:57:22.515Z,93734.11
2019-04-04T02:58:26.018Z,93711.79
2019-04-04T02:59:29.501Z,93711.79
2019-04-04T03:00:33.005Z,93713.09
2019-04-04T03:01:36.566Z,93713.09
2019-04-04T03:02:40.056Z,93711.56
2019-04-04T03:03:43.648Z,93714.41
2019-04-04T03:04:47.313Z,93714.41
2019-04-04T03:05:52.114Z,93708.61
2019-04-04T03:06:58.502Z,93711.33
2019-04-04T03:08:04.165Z,93709.73
2019-04-04T03:09:09.294Z,93705.25
2019-04-04T03:10:15.181Z,93703.09
2019-04-04T03:11:21.162Z,93703.09
2019-04-04T03:12:25.740Z,93711.34
2019-04-04T03:13:32.233Z,93707.19
2019-04-04T03:14:37.294Z,93707.02
2019-04-04T03:15:41.579Z,93703.52
2019-04-04T03:16:45.482Z,93696.08
2019-04-04T03:17:48.900Z,93691.41
2019-04-04T03:18:52.347Z,93691.26
2019-04-04T03:19:55.797Z,93692.39
2019-04-04T03:20:59.217Z,93686.27
2019-04-04T03:22:02.649Z,93684.17
2019-04-04T03:23:06.141Z,93686.18
2019-04-04T03:24:09.618Z,93685.72
2019-04-04T03:25:14.910Z,93680.50
2019-04-04T03:26:20.180Z,93683.59
2019-04-04T03:27:26.848Z,93669.09
2019-04-04T03:28:31.451Z,93660.16
2019-04-04T03:29:37.283Z,93659.83
2019-04-04T03:30:39.134Z,93663.55
2019-04-04T03:31:42.615Z,93666.88
2019-04-04T03:32:51.808Z,93657.85
2019-04-04T03:33:51.393Z,93658.56
2019-04-04T03:34:54.991Z,93653.56
2019-04-04T03:36:00.961Z,93650.16
2019-04-04T03:37:05.923Z,93645.20
2019-04-04T03:38:13.021Z,93648.67
2019-04-04T03:39:13.950Z,93655.61
2019-04-04T03:40:17.450Z,93642.13
2019-04-04T03:41:20.876Z,93644.63
2019-04-04T03:42:24.305Z,93640.14
2019-04-04T03:43:27.734Z,93646.20
2019-04-04T03:44:31.251Z,93645.86
2019-04-04T03:45:34.701Z,93641.93
2019-04-04T03:46:39.018Z,93634.16
2019-04-04T03:47:44.500Z,93634.16
2019-04-04T03:48:50.874Z,93633.52
2019-04-04T03:49:56.495Z,93629.94
2019-04-04T03:51:03.624Z,93621.78
2019-04-04T03:52:03.378Z,93630.38
2019-04-04T03:53:06.886Z,93625.98
2019-04-04T03:54:14.495Z,93621.09
2019-04-04T03:55:17.939Z,93631.48
2019-04-04T03:56:21.379Z,93629.02
2019-04-04T03:57:24.882Z,93627.31
2019-04-04T03:58:28.415Z,93611.46
2019-04-04T03:59:32.393Z,93615.66
2019-04-04T04:00:39.281Z,93615.66
2019-04-04T04:01:45.215Z,93612.15
2019-04-04T04:02:49.809Z,93608.69
2019-04-04T04:03:54.737Z,93614.12
2019-04-04T04:05:00.348Z,93611.86
2019-04-04T04:06:02.464Z,93611.86
2019-04-04T04:07:05.892Z,93613.60
2019-04-04T04:08:09.340Z,93605.14
2019-04-04T04:09:12.834Z,93600.40
2019-04-04T04:10:16.264Z,93601.08
2019-04-04T04:11:19.751Z,93596.17
2019-04-04T04:12:23.190Z,93594.05
2019-04-04T04:13:26.618Z,93581.22
2019-04-04T04:14:30.075Z,93587.97
2019-04-04T04:15:33.504Z,93583.97
2019-04-04T04:16:36.951Z,93583.97
2019-04-04T04:17:45.041Z,93573.62
2019-04-04T04:18:45.527Z,93561.86
2019-04-04T04:19:48.957Z,93561.86
2019-04-04T04:20:52.399Z,93567.21
2019-04-04T04:21:55.912Z,93567.67
2019-04-04T04:22:59.813Z,93571.01
2019-04-04T04:24:03.311Z,93573.28
2019-04-04T04:25:06.969Z,93563.31
2019-04-04T04:26:10.474Z,93558.47
2019-04-04T04:27:15.483Z,93551.63
2019-04-04T04:28:20.173Z,93556.17
2019-04-04T04:29:24.297Z,93559.58
2019-04-04T04:30:27.727Z,93551.71
2019-04-04T04:31:31.168Z,93549.92
2019-04-04T04:32:37.239Z,93552.27
2019-04-04T04:33:39.830Z,93546.73
2019-04-04T04:34:43.275Z,93547.89
2019-04-04T04:35:46.742Z,93556.94
2019-04-04T04:36:50.155Z,93550.98
2019-04-04T04:37:53.945Z,93550.34
2019-04-04T04:39:00.019Z,93551.84
2019-04-04T04:40:02.702Z,93548.47
2019-04-04T04:41:06.144Z,93547.80
2019-04-04T04:42:09.591Z,93546.00
2019-04-04T04:43:15.494Z,93545.55
2019-04-04T04:44:18.242Z,93531.77
2019-04-04T04:45:21.672Z,93527.12
2019-04-04T04:46:25.273Z,93526.24
2019-04-04T04:47:28.781Z,93528.38
2019-04-04T04:48:32.225Z,93520.01
2019-04-04T04:49:36.391Z,93529.21
2019-04-04T04:50:40.559Z,93525.38
2019-04-04T04:51:44.511Z,93525.38
2019-04-04T04:52:47.942Z,93532.22
2019-04-04T04:53:51.442Z,93526.78
2019-04-04T04:54:55.567Z,93520.13
2019-04-04T04:56:00.495Z,93521.86
2019-04-04T04:57:05.085Z,93518.55
2019-04-04T04:58:10.305Z,93527.04
2019-04-04T04:59:13.943Z,93517.58
2019-04-04T05:00:17.597Z,93518.27
2019-04-04T05:01:21.029Z,93518.80
2019-04-04T05:02:24.547Z,93515.22
2019-04-04T05:03:27.977Z,93515.04
2019-04-04T05:04:31.415Z,93510.64
2019-04-04T05:05:34.904Z,93520.35
2019-04-04T05:06:38.400Z,93518.98
2019-04-04T05:07:41.892Z,93518.85
2019-04-04T05:08:45.390Z,93514.57
2019-04-04T05:09:48.820Z,93514.57
2019-04-04T05:10:52.346Z,93517.97
2019-04-04T05:11:55.756Z,93517.97
2019-04-04T05:12:59.187Z,93510.45
2019-04-04T05:14:02.695Z,93500.30
2019-04-04T05:15:07.252Z,93497.81
2019-04-04T05:16:10.692Z,93496.98
2019-04-04T05:17:14.158Z,93505.30
2019-04-04T05:18:17.619Z,93496.32
2019-04-04T05:19:21.069Z,93490.86
2019-04-04T05:20:25.626Z,93480.95
2019-04-04T05:21:29.750Z,93477.83
2019-04-04T05:22:33.221Z,93485.80
2019-04-04T05:23:36.728Z,93490.90
2019-04-04T05:24:40.190Z,93498.25
2019-04-04T05:25:53.394Z,93485.03
2019-04-04T05:26:48.839Z,93469.72
2019-04-04T05:27:52.291Z,93475.10
2019-04-04T05:28:57.115Z,93477.81
2019-04-04T05:30:00.714Z,93470.48
2019-04-04T05:31:04.228Z,93472.20
2019-04-04T05:32:07.793Z,93457.23
2019-04-04T05:33:11.257Z,93458.81
2019-04-04T05:34:14.668Z,93459.80
2019-04-04T05:35:18.115Z,93452.42
2019-04-04T05:36:21.582Z,93456.67
2019-04-04T05:37:27.390Z,93458.61
2019-04-04T05:38:30.245Z,93456.55
2019-04-04T05:39:33.745Z,93443.22
2019-04-04T05:40:37.303Z,93440.08
2019-04-04T05:41:40.730Z,93450.89
2019-04-04T05:42:44.252Z,93444.75
2019-04-04T05:43:47.683Z,93445.63
2019-04-04T05:44:51.251Z,93444.41
2019-04-04T05:45:54.770Z,93438.70
2019-04-04T05:46:58.363Z,93432.42
2019-04-04T05:48:01.794Z,93434.11
2019-04-04T05:49:07.807Z,93433.38
2019-04-04T05:50:11.463Z,93446.81
2019-04-04T05:51:15.998Z,93447.67
2019-04-04T05:52:19.488Z,93439.66
2019-04-04T05:53:22.912Z,93442.27
2019-04-04T05:54:26.352Z,93440.84
2019-04-04T05:55:29.773Z,93427.89
2019-04-04T05:56:33.200Z,93435.38
2019-04-04T05:57:36.665Z,93422.43
2019-04-04T05:58:40.080Z,93423.00
2019-04-04T05:59:43.635Z,93423.92
2019-04-04T06:00:47.486Z,93411.30
2019-04-04T06:01:50.866Z,93417.92
2019-04-04T06:02:54.306Z,93415.22
2019-04-04T06:03:57.827Z,93417.83
2019-04-04T06:05:01.640Z,93416.41
2019-04-04T06:06:05.187Z,93405.31
2019-04-04T06:07:08.782Z,93400.02
2019-04-04T06:08:12.258Z,93409.20
2019-04-04T06:09:15.738Z,93408.59
2019-04-04T06:10:19.274Z,93384.33
2019-04-04T06:11:22.706Z,93393.75
2019-04-04T06:12:26.138Z,93387.55
2019-04-04T06:13:29.573Z,93377.33
2019-04-04T06:14:33.052Z,93377.80
2019-04-04T06:15:36.508Z,93388.98
2019-04-04T06:16:39.935Z,93390.63
2019-04-04T06:17:43.437Z,93381.91
2019-04-04T06:18:49.178Z,93376.03
2019-04-04T06:19:52.036Z,93374.99
2019-04-04T06:20:55.609Z,93377.28
2019-04-04T06:21:59.050Z,93370.23
2019-04-04T06:23:02.495Z,93366.27
2019-04-04T06:24:05.926Z,93372.70
2019-04-04T06:25:09.619Z,93362.40
2019-04-04T06:26:13.125Z,93348.36
2019-04-04T06:27:16.558Z,93346.81
2019-04-04T06:28:19.994Z,93352.45
2019-04-04T06:29:23.411Z,93353.58
2019-04-04T06:30:26.929Z,93349.98
2019-04-04T06:31:30.905Z,93340.19
2019-04-04T06:32:34.475Z,93337.64
2019-04-04T06:33:37.907Z,93337.16
2019-04-04T06:34:42.204Z,93335.85
2019-04-04T06:35:47.906Z,93331.25
2019-04-04T06:36:51.422Z,93332.09
2019-04-04T06:37:54.857Z,93337.96
2019-04-04T06:38:58.281Z,93344.91
2019-04-04T06:40:01.719Z,93344.44
2019-04-04T06:41:05.343Z,93341.17
2019-04-04T06:42:11.223Z,93335.47
2019-04-04T06:43:13.946Z,93332.50
2019-04-04T06:44:17.430Z,93330.63
2019-04-04T06:45:20.857Z,93327.45
2019-04-04T06:46:24.318Z,93323.62
2019-04-04T06:47:27.749Z,93310.40
2019-04-04T06:48:33.837Z,93310.30
2019-04-04T06:49:36.348Z,93312.77
2019-04-04T06:50:42.847Z,93307.19
2019-04-04T06:51:46.594Z,93304.75
2019-04-04T06:52:50.504Z,93300.58
2019-04-04T06:53:54.612Z,93296.41
2019-04-04T06:54:58.071Z,93299.36
2019-04-04T06:56:01.536Z,93297.58
2019-04-04T06:57:05.047Z,93292.36
2019-04-04T06:58:09.478Z,93300.34
2019-04-04T06:59:13.163Z,93289.08
2019-04-04T07:00:16.939Z,93291.13
2019-04-04T07:01:21.924Z,93294.13
2019-04-04T07:02:25.647Z,93295.61
2019-04-04T07:03:29.102Z,93288.34
2019-04-04T07:04:35.804Z,93284.00
2019-04-04T07:05:38.919Z,93294.11
2019-04-04T07:06:42.476Z,93297.89
2019-04-04T07:07:45.962Z,93298.52
2019-04-04T07:08:49.395Z,93295.19
2019-04-04T07:09:52.885Z,93293.61
2019-04-04T07:10:58.098Z,93298.34
2019-04-04T07:12:01.496Z,93300.73
2019-04-04T07:13:20.639Z,93294.27
2019-04-04T07:14:10.193Z,93287.56
2019-04-04T07:15:15.977Z,93284.77
2019-04-04T07:16:19.606Z,93288.30
2019-04-04T07:17:23.066Z,93295.14
2019-04-04T07:18:26.508Z,93298.17
2019-04-04T07:19:29.997Z,93294.58
2019-04-04T07:20:33.491Z,93295.78
2019-04-04T07:21:36.942Z,93306.84
2019-04-04T07:22:43.496Z,93305.78
2019-04-04T07:23:47.046Z,93303.91
2019-04-04T07:24:50.479Z,93306.05
2019-04-04T07:25:54.058Z,93300.28
2019-04-04T07:26:57.530Z,93303.03
2019-04-04T07:28:01.037Z,93293.56
2019-04-04T07:29:04.715Z,93287.82
2019-04-04T07:30:08.748Z,93277.59
2019-04-04T07:31:12.293Z,93282.89
2019-04-04T07:32:15.740Z,93292.75
2019-04-04T07:33:21.396Z,93285.43
2019-04-04T07:34:24.423Z,93298.52
2019-04-04T07:35:27.858Z,93301.59
2019-04-04T07:36:31.316Z,93303.52
2019-04-04T07:37:34.899Z,93302.73
2019-04-04T07:38:38.339Z,93307.05
2019-04-04T07:39:41.776Z,93298.97
2019-04-04T07:40:45.265Z,93295.41
2019-04-04T07:41:48.794Z,93295.41
2019-04-04T07:42:52.224Z,93301.53
2019-04-04T07:43:58.507Z,93297.75
2019-04-04T07:45:00.903Z,93297.75
2019-04-04T07:46:15.635Z,93308.03
2019-04-04T07:47:09.640Z,93302.09
2019-04-04T07:48:13.083Z,93302.09
2019-04-04T07:49:16.541Z,93307.77
2019-04-04T07:50:19.976Z,93306.23
2019-04-04T07:51:23.416Z,93307.45
2019-04-04T07:52:26.933Z,93307.45
2019-04-04T07:53:30.366Z,93305.14
2019-04-04T07:54:33.793Z,93297.16
2019-04-04T07:55:37.221Z,93298.16
2019-04-04T07:56:40.817Z,93296.84
2019-04-04T07:57:44.257Z,93298.33
2019-04-04T07:58:47.706Z,93295.23
2019-04-04T07:59:51.140Z,93293.28
2019-04-04T08:00:54.576Z,93293.28
2019-04-04T08:01:58.091Z,93295.44
2019-04-04T08:03:01.543Z,93301.99
2019-04-04T08:04:06.608Z,93296.54
2019-04-04T08:05:12.993Z,93298.47
2019-04-04T08:06:15.727Z,93290.92
2019-04-04T08:07:19.180Z,93297.70
2019-04-04T08:08:22.703Z,93291.37
2019-04-04T08:09:26.444Z,93289.80
2019-04-04T08:10:29.927Z,93296.66
2019-04-04T08:11:33.438Z,93299.28
2019-04-04T08:12:36.964Z,93307.91
2019-04-04T08:13:40.561Z,93303.02
2019-04-04T08:14:43.985Z,93303.02
2019-04-04T08:15:47.485Z,93308.92
2019-04-04T08:16:50.993Z,93300.34
2019-04-04T08:17:54.435Z,93302.84
2019-04-04T08:18:58.229Z,93299.78
2019-04-04T08:20:01.682Z,93300.39
2019-04-04T08:21:05.834Z,93294.88
2019-04-04T08:22:09.552Z,93290.88
2019-04-04T08:23:13.095Z,93301.22
2019-04-04T08:24:16.527Z,93297.02
2019-04-04T08:25:19.955Z,93302.44
2019-04-04T08:26:23.386Z,93298.97
2019-04-04T08:27:26.825Z,93304.27
2019-04-04T08:28:30.286Z,93295.58
2019-04-04T08:29:33.715Z,93293.89
2019-04-04T08:30:37.218Z,93288.38
2019-04-04T08:31:40.719Z,93295.11
2019-04-04T08:32:44.219Z,93286.96
2019-04-04T08:33:47.723Z,93288.30
2019-04-04T08:34:51.135Z,93283.11
2019-04-04T08:36:05.341Z,93283.88
2019-04-04T08:36:59.866Z,93280.70
2019-04-04T08:38:03.297Z,93282.48
2019-04-04T08:39:08.932Z,93288.64
2019-04-04T08:40:12.435Z,93290.09
2019-04-04T08:41:15.946Z,93298.33
2019-04-04T08:42:19.368Z,93296.30
2019-04-04T08:43:22.874Z,93296.63
2019-04-04T08:44:26.428Z,93298.08
2019-04-04T08:45:30.007Z,93304.78
2019-04-04T08:46:33.513Z,93295.30
2019-04-04T08:47:37.039Z,93297.24
2019-04-04T08:48:40.559Z,93298.73
2019-04-04T08:49:44.070Z,93305.91
2019-04-04T08:50:47.648Z,93304.61
2019-04-04T08:51:51.084Z,93306.98
2019-04-04T08:52:54.524Z,93311.36
2019-04-04T08:53:58.003Z,93311.66
2019-04-04T08:55:01.441Z,93313.39
2019-04-04T08:56:05.011Z,93313.69
2019-04-04T08:57:08.443Z,93320.70
2019-04-04T08:58:11.880Z,93329.19
2019-04-04T08:59:15.343Z,93341.63
2019-04-04T09:00:18.932Z,93340.21
2019-04-04T09:01:22.440Z,93350.45
2019-04-04T09:02:25.881Z,93338.05
2019-04-04T09:03:29.309Z,93341.55
2019-04-04T09:04:32.847Z,93342.27
2019-04-04T09:05:36.367Z,93346.95
2019-04-04T09:06:39.808Z,93351.78
2019-04-04T09:07:43.410Z,93352.53
2019-04-04T09:08:46.877Z,93355.48
2019-04-04T09:09:50.399Z,93360.91
2019-04-04T09:10:53.942Z,93358.67
2019-04-04T09:11:57.522Z,93362.35
2019-04-04T09:13:01.053Z,93364.70
2019-04-04T09:14:04.623Z,93373.45
2019-04-04T09:15:08.550Z,93374.20
2019-04-04T09:16:12.123Z,93381.34
2019-04-04T09:17:15.654Z,93377.84
2019-04-04T09:18:19.054Z,93380.49
2019-04-04T09:19:22.500Z,93390.63
2019-04-04T09:20:26.056Z,93393.06
2019-04-04T09:21:29.466Z,93399.05
2019-04-04T09:22:32.964Z,93400.44
2019-04-04T09:23:36.397Z,93398.09
2019-04-04T09:24:39.848Z,93399.81
2019-04-04T09:25:43.761Z,93408.77
2019-04-04T09:26:47.264Z,93408.49
2019-04-04T09:27:50.712Z,93402.03
2019-04-04T09:28:54.289Z,93407.89
2019-04-04T09:29:57.685Z,93412.27
2019-04-04T09:31:01.120Z,93411.40
2019-04-04T09:32:04.689Z,93410.83
2019-04-04T09:33:08.230Z,93419.11
2019-04-04T09:34:11.731Z,93419.80
2019-04-04T09:35:15.258Z,93416.70
2019-04-04T09:36:18.830Z,93423.80
2019-04-04T09:37:22.267Z,93423.57
2019-04-04T09:38:25.775Z,93424.38
2019-04-04T09:39:29.212Z,93426.37
2019-04-04T09:40:32.707Z,93429.20
2019-04-04T09:41:36.202Z,93431.91
2019-04-04T09:42:39.707Z,93435.42
2019-04-04T09:43:43.154Z,93426.67
2019-04-04T09:44:46.618Z,93431.47
2019-04-04T09:45:50.139Z,93431.20
2019-04-04T09:47:04.919Z,93435.44
2019-04-04T09:47:58.716Z,93432.38
2019-04-04T09:49:02.157Z,93440.19
2019-04-04T09:50:06.744Z,93435.62
2019-04-04T09:51:10.222Z,93431.20
2019-04-04T09:52:13.727Z,93426.32
2019-04-04T09:53:17.159Z,93436.16
2019-04-04T09:54:20.959Z,93434.62
2019-04-04T09:55:24.366Z,93428.42
2019-04-04T09:56:27.802Z,93427.00
2019-04-04T09:57:31.233Z,93436.67
2019-04-04T09:58:34.673Z,93429.55
2019-04-04T09:59:38.130Z,93431.73
2019-04-04T10:00:41.837Z,93430.19
2019-04-04T10:01:45.258Z,93433.14
2019-04-04T10:02:49.741Z,93428.47
2019-04-04T10:03:53.664Z,93424.05
2019-04-04T10:04:57.211Z,93435.30
2019-04-04T10:06:00.664Z,93436.34
2019-04-04T10:07:04.243Z,93439.14
2019-04-04T10:08:07.845Z,93439.89
2019-04-04T10:09:15.865Z,93437.59
2019-04-04T10:10:17.249Z,93435.09
2019-04-04T10:11:20.701Z,93435.98
2019-04-04T10:12:24.232Z,93441.23
2019-04-04T10:13:27.737Z,93438.84
2019-04-04T10:14:31.174Z,93439.42
2019-04-04T10:15:34.609Z,93439.14
2019-04-04T10:16:38.143Z,93434.69
2019-04-04T10:17:41.660Z,93437.92
2019-04-04T10:18:45.168Z,93441.80
2019-04-04T10:19:48.674Z,93447.66
2019-04-04T10:20:52.250Z,93454.56
2019-04-04T10:21:55.719Z,93453.55
2019-04-04T10:22:59.148Z,93458.20
2019-04-04T10:24:02.650Z,93457.33
2019-04-04T10:25:06.423Z,93456.52
2019-04-04T10:26:09.930Z,93443.69
2019-04-04T10:27:13.365Z,93447.84
2019-04-04T10:28:16.868Z,93443.16
2019-04-04T10:29:20.375Z,93435.75
2019-04-04T10:30:23.893Z,93437.50
2019-04-04T10:31:27.422Z,93433.31
2019-04-04T10:32:30.865Z,93440.82
2019-04-04T10:33:34.347Z,93441.39
2019-04-04T10:34:37.788Z,93448.45
2019-04-04T10:35:41.236Z,93450.53
2019-04-04T10:36:44.781Z,93448.91
2019-04-04T10:37:48.216Z,93455.14
2019-04-04T10:38:51.655Z,93452.37
2019-04-04T10:39:55.101Z,93454.05
2019-04-04T10:40:58.610Z,93455.95
2019-04-04T10:42:02.138Z,93453.22
2019-04-04T10:43:05.638Z,93453.98
2019-04-04T10:44:09.083Z,93451.00
2019-04-04T10:45:13.572Z,93453.98
2019-04-04T10:46:17.075Z,93456.62
2019-04-04T10:47:20.598Z,93453.58
2019-04-04T10:48:24.118Z,93455.20
2019-04-04T10:49:27.646Z,93458.27
2019-04-04T10:50:31.092Z,93461.91
2019-04-04T10:51:34.539Z,93463.47
2019-04-04T10:52:38.120Z,93470.13
2019-04-04T10:53:41.568Z,93462.66
2019-04-04T10:54:45.079Z,93464.56
2019-04-04T10:55:48.677Z,93461.52
2019-04-04T10:56:52.121Z,93464.95
2019-04-04T10:57:55.678Z,93458.86
2019-04-04T10:58:59.244Z,93455.83
2019-04-04T11:00:03.354Z,93452.16
2019-04-04T11:01:06.987Z,93457.12
2019-04-04T11:02:10.417Z,93459.45
2019-04-04T11:03:13.867Z,93459.45
2019-04-04T11:04:17.324Z,93455.98
2019-04-04T11:05:20.738Z,93449.07
2019-04-04T11:06:24.185Z,93445.41
2019-04-04T11:07:27.615Z,93448.55
2019-04-04T11:08:31.080Z,93458.00
2019-04-04T11:09:41.762Z,93453.45
2019-04-04T11:10:39.709Z,93466.02
2019-04-04T11:11:43.159Z,93464.28
2019-04-04T11:12:46.592Z,93461.16
2019-04-04T11:13:50.119Z,93461.33
2019-04-04T11:14:53.561Z,93452.89
2019-04-04T11:15:57.007Z,93453.91
2019-04-04T11:17:00.446Z,93454.17
2019-04-04T11:18:03.965Z,93449.83
2019-04-04T11:19:09.706Z,93443.71
2019-04-04T11:20:12.805Z,93442.55
2019-04-04T11:21:16.245Z,93445.34
2019-04-04T11:22:19.681Z,93455.28
2019-04-04T11:23:23.215Z,93449.44
2019-04-04T11:24:26.664Z,93449.29
2019-04-04T11:25:30.118Z,93453.55
2019-04-04T11:26:33.616Z,93452.23
2019-04-04T11:27:37.065Z,93452.25
2019-04-04T11:28:40.531Z,93452.41
2019-04-04T11:29:43.981Z,93451.97
2019-04-04T11:30:47.423Z,93448.88
2019-04-04T11:31:50.898Z,93443.91
2019-04-04T11:32:54.341Z,93448.61
2019-04-04T11:33:57.796Z,93446.13
2019-04-04T11:35:01.235Z,93447.87
2019-04-04T11:36:04.810Z,93451.09
2019-04-04T11:37:08.266Z,93451.54
2019-04-04T11:38:11.769Z,93445.68
2019-04-04T11:39:15.219Z,93444.78
2019-04-04T11:40:18.675Z,93447.84
2019-04-04T11:41:22.120Z,93447.09
2019-04-04T11:42:25.624Z,93438.48
2019-04-04T11:43:29.062Z,93452.08
2019-04-04T11:44:32.529Z,93444.86
2019-04-04T11:45:36.052Z,93437.59
2019-04-04T11:46:39.565Z,93448.26
2019-04-04T11:47:42.997Z,93449.72
2019-04-04T11:48:46.433Z,93445.49
2019-04-04T11:49:49.968Z,93443.66
2019-04-04T11:50:53.417Z,93445.47
2019-04-04T11:51:56.921Z,93443.23
2019-04-04T11:53:00.358Z,93445.66
2019-04-04T11:54:03.871Z,93444.38
2019-04-04T11:55:07.565Z,93450.05
2019-04-04T11:56:11.072Z,93453.55
2019-04-04T11:57:14.499Z,93456.09
2019-04-04T11:58:17.941Z,93457.08
2019-04-04T11:59:21.382Z,93461.56
2019-04-04T12:00:31.890Z,93454.83
2019-04-04T12:01:37.033Z,93460.95
2019-04-04T12:02:40.545Z,93456.42
2019-04-04T12:03:44.061Z,93454.63
2019-04-04T12:04:47.495Z,93457.05
2019-04-04T12:05:50.955Z,93448.88
2019-04-04T12:06:54.389Z,93448.92
2019-04-04T12:07:57.829Z,93444.36
2019-04-04T12:09:01.268Z,93445.08
2019-04-04T12:10:07.961Z,93447.33
2019-04-04T12:11:11.575Z,93445.23
2019-04-04T12:12:15.014Z,93439.23
2019-04-04T12:13:18.451Z,93439.94
2019-04-04T12:14:21.875Z,93439.34
2019-04-04T12:15:25.400Z,93438.77
2019-04-04T12:16:28.925Z,93431.13
2019-04-04T12:17:32.376Z,93430.27
2019-04-04T12:18:35.816Z,93428.27
2019-04-04T12:19:39.250Z,93424.91
2019-04-04T12:20:43.463Z,93425.65
2019-04-04T12:21:47.141Z,93428.47
2019-04-04T12:22:50.634Z,93431.23
2019-04-04T12:23:54.079Z,93432.71
2019-04-04T12:24:57.514Z,93436.42
2019-04-04T12:26:00.965Z,93436.45
2019-04-04T12:27:04.472Z,93437.28
2019-04-04T12:28:07.979Z,93444.70
2019-04-04T12:29:11.415Z,93440.42